NameSizeLast modified
Parent directory/⇩ 594 MB(.zip of contents)
101_SPaCeyALieN - Last One Standing (RSKP Tribute RMX).mp3⇩ 11 MB2017-03-29 09:18:50
102_Dooky - Fuck Off-Anthem (RSKP Tribute RMX).mp3⇩ 11 MB2017-03-29 09:18:51
103_DJ STUFF TERROR - First Tribute.mp3⇩ 6 MB2017-03-29 09:18:52
104_Hersenerosie - Scream And Die (Tribute To RSKP).mp3⇩ 4 MB2017-03-29 09:18:52
105_Lord Of Sp33d - RSKP Ok! (Vocals By SPaCeyALieN).mp3⇩ 7 MB2017-03-29 09:18:53
106_Evilkiller - Another 666 BPM Fucking Speedcore In Ya Brains.mp3⇩ 6 MB2017-03-29 09:18:53
107_Underground Violence & SPaCeyALieN - Robotik Speedcore Sickness.mp3⇩ 6 MB2017-03-29 09:18:54
108_AntiTek - Dont Fuck With Us Final.mp3⇩ 10 MB2017-03-29 09:18:55
109_Apokaliptik Panzer Symphony (Billy S) - Panzercore.mp3⇩ 13 MB2017-03-29 09:18:56
110_DaPole - Beauty Terror.mp3⇩ 13 MB2017-03-29 09:18:57
111_Apokaliptik Panzer Symphony (Billy S) - Requiem's Front.mp3⇩ 12 MB2017-03-29 09:18:58
112_DaPole & Dooky - Morgentod.mp3⇩ 14 MB2017-03-29 09:18:59
113_hallucinoJENic N Cardiac Arrest - Red EyE.mp3⇩ 11 MB2017-03-29 09:19:00
114_Apokaliptik Panzer Symphony (Billy S) - Walk in the Darkness.mp3⇩ 15 MB2017-03-29 09:19:02
115_Hate Division - Nuclearer Frostwinter.mp3⇩ 15 MB2017-03-29 09:19:03
116_Imil - Dikkere Frietuh (En Ook Nog Eens Extra Ketchup).mp3⇩ 6 MB2017-03-29 09:19:04
117_Dooky & DaPole - Psycho Patters.mp3⇩ 13 MB2017-03-29 09:19:05
118_hallucinoJENic N Cardiac Arrest - Brainfreezer.mp3⇩ 5 MB2017-03-29 09:19:05
119_Lord Of Sp33d - Spietkoor (Vocals By SPaCeyALieN).mp3⇩ 5 MB2017-03-29 09:19:06
120_DaPole - Hey U... (Piss On Edit).mp3⇩ 10 MB2017-03-29 09:19:07
121_Hate Division -Basspielchen Einfach Derbe Auffen Fitzzzz Geknüppelt.mp3⇩ 9 MB2017-03-29 09:19:07
122_Dooky & DaPole - Du Bist Terrorist.mp3⇩ 11 MB2017-03-29 09:19:08
123_DJ-D.Chainsaw & 50 % of ADHD DTT - Fuck Conserven dosen - Wij hebben Geen Tijd Voor Reserve Blikjes (Refix).mp3⇩ 15 MB2017-03-29 09:19:10
124_DaPole - Weißte Ja Wat Dat Heißt (Bam).mp3⇩ 11 MB2017-03-29 09:19:11
125_DJ-D.Chainsaw - Nobody can stop us Mash-Up Remix,Rebuild,,Fuck it,Just A Refix.mp3⇩ 12 MB2017-03-29 09:19:12
126_Peckerhead - Whats Your Emergency.mp3⇩ 6 MB2017-03-29 09:19:12
127_Rekom - Spatox.mp3⇩ 10 MB2017-03-29 09:19:13
201_Dj Abraxas - Post-Sprawl.mp3⇩ 7 MB2017-03-29 09:19:14
202_Exploding Fire Pulse ( Hate Division Remix ).mp3⇩ 9 MB2017-03-29 09:19:15
203_Hersenerosie - Der Gefallene Engel (Part 1).mp3⇩ 11 MB2017-03-29 09:19:16
204_SPaCeyALieN - I Wanna Rape Yah Face (Lk-47 RMX).mp3⇩ 11 MB2017-03-29 09:19:17
205_Loffciamcore - Fuck You If You Don't Like Denskor (Shitkore Mix).mp3⇩ 6 MB2017-03-29 09:19:17
206_Hersenerosie - Insanity Depravity Serenity (Software Failure).mp3⇩ 9 MB2017-03-29 09:19:18
207_Noizefucker - Sine To Fil.mp3⇩ 8 MB2017-03-29 09:19:19
208_HateWire - Unconsential Sex (Youmademebleed) 600bpm.mp3⇩ 12 MB2017-03-29 09:19:20
209_Hate Division - SC VERBOT Für Darkranger (Lyrics By V136).MP3⇩ 8 MB2017-03-29 09:19:21
210_SPaCeyALieN - Cruching Brain-Fact's(Brain Damage RMX).mp3⇩ 7 MB2017-03-29 09:19:21
211_Neuroxid - Keep The Noise.mp3⇩ 9 MB2017-03-29 09:19:22
212_SPaCeyALieN - Kk Is Duh Lul.mp3⇩ 8 MB2017-03-29 09:19:23
213_PARADEIGMA - Garmoniya Stanovleniya.mp3⇩ 6 MB2017-03-29 09:19:23
214_SPaCeyALieN - Messed Up Headfuck RSK.mp3⇩ 8 MB2017-03-29 09:19:24
215_Nine Inch Nails - God Given (Dark Industry rmx).mp3⇩ 10 MB2017-03-29 09:19:25
216_SPaCeyALieN - Speedcore Up Your Mind.mp3⇩ 7 MB2017-03-29 09:19:25
217_HateWire - Narcotically Fuelled Wanker Removal 500bpm.mp3⇩ 10 MB2017-03-29 09:19:26
218_SPaCeyALieN - Focking Enemy (RMX).mp3⇩ 6 MB2017-03-29 09:19:27
219_Hersenerosie - Descend Into The Abbys Of Madness.mp3⇩ 9 MB2017-03-29 09:19:28
220_SPaCeyALieN - Just Kill Tha Kick (Long Version RMX).mp3⇩ 9 MB2017-03-29 09:19:28
221_Rekom - Underground Experiment (Don't Make Destroy).mp3⇩ 10 MB2017-03-29 09:19:29
222__Hersenerosie - Der Gefallene Engel (Part2).mp3⇩ 9 MB2017-03-29 09:19:30
223_TommY RuleZ - Kominy (X000 BPM Version).mp3⇩ 3 MB2017-03-29 09:19:30
224_Mental D-struction - Racism + Scientism = Eugenism.mp3⇩ 13 MB2017-03-29 09:19:32
225_Nekrofil - Repulsive Odor Of Human.mp3⇩ 6 MB2017-03-29 09:19:32
226_SPaCeyALieN -Scream Yah Lungs Out.mp3⇩ 9 MB2017-03-29 09:19:33
227_Valencia Splitter Corps - My Question.mp3⇩ 7 MB2017-03-29 09:19:33
301_SPaCeyALieN - Live Life Productions [Tribute To RSKP].mp3⇩ 92 MB2017-03-29 09:19:42
RSKP026 CD1 back Cover.jpg⇩ 340 KB2017-03-29 09:19:42
RSKP026 CD2&3 back Cover.jpg⇩ 320 KB2017-03-29 09:19:42
RSKP026 FRONT Cover.jpg⇩ 374 KB2017-03-29 09:19:42
RSKP026 Full back Cover.jpg⇩ 839 KB2017-03-29 09:19:42
RSKP026 PLAYLIST.txt⇩ 9 KB2017-03-29 09:19:42